createdAt,value
2017-07-19T00:00:09.875Z,20.80
2017-07-19T00:02:37.345Z,20.80
2017-07-19T00:05:04.838Z,20.80
2017-07-19T00:07:33.128Z,20.90
2017-07-19T00:10:00.608Z,20.90
2017-07-19T00:12:28.404Z,20.90
2017-07-19T00:14:55.877Z,20.90
2017-07-19T00:17:24.405Z,20.80
2017-07-19T00:19:51.893Z,20.80
2017-07-19T00:22:19.371Z,20.70
2017-07-19T00:24:47.609Z,20.70
2017-07-19T00:27:15.116Z,20.70
2017-07-19T00:29:43.357Z,20.70
2017-07-19T00:32:10.837Z,20.70
2017-07-19T00:34:39.102Z,20.60
2017-07-19T00:37:06.570Z,20.60
2017-07-19T00:39:34.821Z,20.40
2017-07-19T00:42:02.710Z,20.40
2017-07-19T00:44:30.984Z,20.20
2017-07-19T00:46:58.590Z,20.20
2017-07-19T00:49:26.361Z,20.20
2017-07-19T00:51:53.873Z,20.10
2017-07-19T00:54:22.113Z,19.80
2017-07-19T00:56:49.605Z,19.80
2017-07-19T00:59:17.846Z,19.80
2017-07-19T01:01:45.317Z,19.80
2017-07-19T01:04:12.821Z,19.80
2017-07-19T01:06:40.298Z,19.80
2017-07-19T01:09:08.077Z,19.70
2017-07-19T01:11:35.566Z,19.70
2017-07-19T01:14:03.805Z,19.60
2017-07-19T01:16:31.273Z,19.60
2017-07-19T01:18:58.777Z,19.60
2017-07-19T01:21:26.246Z,19.50
2017-07-19T01:23:53.716Z,19.40
2017-07-19T01:26:21.346Z,19.40
2017-07-19T01:28:49.582Z,19.30
2017-07-19T01:31:17.050Z,19.30
2017-07-19T01:33:45.421Z,19.10
2017-07-19T01:36:13.681Z,19.00
2017-07-19T01:38:41.164Z,19.00
2017-07-19T01:41:09.436Z,19.00
2017-07-19T01:43:36.905Z,19.00
2017-07-19T01:46:05.163Z,18.90
2017-07-19T01:48:32.696Z,18.90
2017-07-19T01:51:00.165Z,18.90
2017-07-19T01:53:27.856Z,18.80
2017-07-19T01:55:56.116Z,18.70
2017-07-19T01:58:23.585Z,18.70
2017-07-19T02:00:51.090Z,18.60
2017-07-19T02:03:18.861Z,18.60
2017-07-19T02:05:46.589Z,18.60
2017-07-19T02:08:14.829Z,18.50
2017-07-19T02:10:42.322Z,18.50
2017-07-19T02:13:10.633Z,18.50
2017-07-19T02:15:38.105Z,18.50
2017-07-19T02:18:05.597Z,18.40
2017-07-19T02:20:33.833Z,18.20
2017-07-19T02:23:01.482Z,18.20
2017-07-19T02:25:28.974Z,18.10
2017-07-19T02:27:56.453Z,18.10
2017-07-19T02:30:24.690Z,18.10
2017-07-19T02:32:52.288Z,18.10
2017-07-19T02:35:20.530Z,18.20
2017-07-19T02:37:48.184Z,18.20
2017-07-19T02:40:15.753Z,18.20
2017-07-19T02:42:43.246Z,18.10
2017-07-19T02:45:11.489Z,17.80
2017-07-19T02:47:38.981Z,17.80
2017-07-19T02:50:07.223Z,17.70
2017-07-19T02:52:34.696Z,17.70
2017-07-19T02:55:02.983Z,17.70
2017-07-19T02:57:31.509Z,17.60
2017-07-19T02:59:58.984Z,17.60
2017-07-19T03:02:26.478Z,17.60
2017-07-19T03:04:54.712Z,17.60
2017-07-19T03:07:22.185Z,17.50
2017-07-19T03:09:49.681Z,17.60
2017-07-19T03:12:17.158Z,17.60
2017-07-19T03:14:44.928Z,17.50
2017-07-19T03:17:12.418Z,17.50
2017-07-19T03:19:39.890Z,17.30
2017-07-19T03:22:07.453Z,17.30
2017-07-19T03:24:35.713Z,17.30
2017-07-19T03:27:03.249Z,17.30
2017-07-19T03:29:30.712Z,17.30
2017-07-19T03:31:58.201Z,17.20
2017-07-19T03:34:26.442Z,17.20
2017-07-19T03:36:53.926Z,17.20
2017-07-19T03:39:21.430Z,17.20
2017-07-19T03:41:48.909Z,17.10
2017-07-19T03:44:16.381Z,17.00
2017-07-19T03:46:43.876Z,16.90
2017-07-19T03:49:12.142Z,16.60
2017-07-19T03:51:39.612Z,16.60
2017-07-19T03:54:07.113Z,16.60
2017-07-19T03:56:34.585Z,16.70
2017-07-19T03:59:02.058Z,16.80
2017-07-19T04:01:29.549Z,16.90
2017-07-19T04:03:57.017Z,16.80
2017-07-19T04:06:24.495Z,16.90
2017-07-19T04:08:51.988Z,17.00
2017-07-19T04:11:19.461Z,17.10
2017-07-19T04:13:47.701Z,17.20
2017-07-19T04:16:15.197Z,17.10
2017-07-19T04:18:43.437Z,17.20
2017-07-19T04:21:10.909Z,17.20
2017-07-19T04:23:38.401Z,17.20
2017-07-19T04:26:05.877Z,17.10
2017-07-19T04:28:34.184Z,17.10
2017-07-19T04:31:01.676Z,17.10
2017-07-19T04:33:29.982Z,17.20
2017-07-19T04:35:57.453Z,17.20
2017-07-19T04:38:25.210Z,17.30
2017-07-19T04:40:52.686Z,17.30
2017-07-19T04:43:20.157Z,17.40
2017-07-19T04:45:47.645Z,17.50
2017-07-19T04:48:15.881Z,17.80
2017-07-19T04:50:43.349Z,17.80
2017-07-19T04:53:10.837Z,18.10
2017-07-19T04:55:38.315Z,18.30
2017-07-19T04:58:05.785Z,18.50
2017-07-19T05:00:33.274Z,18.60
2017-07-19T05:03:00.745Z,18.70
2017-07-19T05:05:28.985Z,18.80
2017-07-19T05:07:56.482Z,18.80
2017-07-19T05:10:24.716Z,19.50
2017-07-19T05:12:52.213Z,19.50
2017-07-19T05:15:20.473Z,21.00
2017-07-19T05:17:47.977Z,21.00
2017-07-19T05:20:15.461Z,21.20
2017-07-19T05:22:42.953Z,21.20
2017-07-19T05:25:10.420Z,21.20
2017-07-19T05:27:38.713Z,21.30
2017-07-19T05:30:06.205Z,21.30
2017-07-19T05:32:33.673Z,21.50
2017-07-19T05:35:01.145Z,21.60
2017-07-19T05:37:28.641Z,21.90
2017-07-19T05:39:56.109Z,22.20
2017-07-19T05:42:23.609Z,22.40
2017-07-19T05:44:51.125Z,22.60
2017-07-19T05:47:18.593Z,22.50
2017-07-19T05:49:46.062Z,22.50
2017-07-19T05:52:13.554Z,22.60
2017-07-19T05:54:41.029Z,23.20
2017-07-19T05:57:09.265Z,23.40
2017-07-19T05:59:36.757Z,23.30
2017-07-19T06:02:04.993Z,23.60
2017-07-19T06:04:32.465Z,23.60
2017-07-19T06:06:59.952Z,24.10
2017-07-19T06:09:27.434Z,24.20
2017-07-19T06:11:54.901Z,24.20
2017-07-19T06:14:22.393Z,24.40
2017-07-19T06:16:49.865Z,24.40
2017-07-19T06:19:18.097Z,24.40
2017-07-19T06:21:45.589Z,24.40
2017-07-19T06:24:13.065Z,24.50
2017-07-19T06:26:41.302Z,24.20
2017-07-19T06:29:08.809Z,24.20
2017-07-19T06:31:36.276Z,24.40
2017-07-19T06:34:03.747Z,24.60
2017-07-19T06:36:31.237Z,25.20
2017-07-19T06:38:58.713Z,25.30
2017-07-19T06:41:26.185Z,25.50
2017-07-19T06:43:54.449Z,25.50
2017-07-19T06:46:21.921Z,25.50
2017-07-19T06:48:50.157Z,25.20
2017-07-19T06:51:17.652Z,25.30
2017-07-19T06:53:45.893Z,25.40
2017-07-19T06:56:13.361Z,25.40
2017-07-19T06:58:40.852Z,25.60
2017-07-19T07:01:08.321Z,26.00
2017-07-19T07:03:35.788Z,25.70
2017-07-19T07:06:03.307Z,25.90
2017-07-19T07:08:31.545Z,26.10
2017-07-19T07:10:59.018Z,26.10
2017-07-19T07:13:26.501Z,26.60
2017-07-19T07:15:54.738Z,26.60
2017-07-19T07:18:22.321Z,26.50
2017-07-19T07:20:50.599Z,26.70
2017-07-19T07:23:18.865Z,26.80
2017-07-19T07:25:46.333Z,26.80
2017-07-19T07:28:14.860Z,27.10
2017-07-19T07:30:42.333Z,27.00
2017-07-19T07:33:09.800Z,27.70
2017-07-19T07:35:37.288Z,27.70
2017-07-19T07:38:05.528Z,28.00
2017-07-19T07:40:32.997Z,27.90
2017-07-19T07:43:00.485Z,28.40
2017-07-19T07:45:28.720Z,28.40
2017-07-19T07:47:56.191Z,28.40
2017-07-19T07:50:23.700Z,28.60
2017-07-19T07:52:51.948Z,29.20
2017-07-19T07:55:20.186Z,29.30
2017-07-19T07:57:47.692Z,29.30
2017-07-19T08:00:15.161Z,29.50
2017-07-19T08:02:42.689Z,29.20
2017-07-19T08:05:10.949Z,29.30
2017-07-19T08:07:38.418Z,29.40
2017-07-19T08:10:06.660Z,29.90
2017-07-19T08:12:34.152Z,29.90
2017-07-19T08:15:02.389Z,30.00
2017-07-19T08:17:29.867Z,30.00
2017-07-19T08:19:58.360Z,30.10
2017-07-19T08:22:26.598Z,30.90
2017-07-19T08:24:54.094Z,30.90
2017-07-19T08:27:22.364Z,30.90
2017-07-19T08:29:49.834Z,30.90
2017-07-19T08:32:18.074Z,31.70
2017-07-19T08:34:45.569Z,31.60
2017-07-19T08:37:13.813Z,32.70
2017-07-19T08:39:41.285Z,32.60
2017-07-19T08:42:08.781Z,32.80
2017-07-19T08:44:36.257Z,32.60
2017-07-19T08:47:03.733Z,32.70
2017-07-19T08:49:31.629Z,32.90
2017-07-19T08:51:59.865Z,32.90
2017-07-19T08:54:27.332Z,32.80
2017-07-19T08:56:55.069Z,33.20
2017-07-19T08:59:22.537Z,33.20
2017-07-19T09:01:50.005Z,33.70
2017-07-19T09:04:17.537Z,33.70
2017-07-19T09:06:45.009Z,33.40
2017-07-19T09:09:12.477Z,32.90
2017-07-19T09:11:39.973Z,33.10
2017-07-19T09:14:07.568Z,33.00
2017-07-19T09:16:35.057Z,33.20
2017-07-19T09:19:03.503Z,33.60
2017-07-19T09:21:31.017Z,33.80
2017-07-19T09:23:59.253Z,33.60
2017-07-19T09:26:26.745Z,33.60
2017-07-19T09:28:54.560Z,33.80
2017-07-19T09:31:22.036Z,33.70
2017-07-19T09:33:49.564Z,33.80
2017-07-19T09:36:17.024Z,34.30
2017-07-19T09:38:44.493Z,34.40
2017-07-19T09:41:11.985Z,34.50
2017-07-19T09:43:39.453Z,34.30
2017-07-19T09:46:06.922Z,34.90
2017-07-19T09:48:34.436Z,34.60
2017-07-19T09:51:01.927Z,34.50
2017-07-19T09:53:29.421Z,34.50
2017-07-19T09:55:56.925Z,34.60
2017-07-19T09:58:24.393Z,34.90
2017-07-19T10:00:51.868Z,35.50
2017-07-19T10:03:20.382Z,35.60
2017-07-19T10:05:47.861Z,35.60
2017-07-19T10:08:15.332Z,35.80
2017-07-19T10:10:42.820Z,36.40
2017-07-19T10:13:11.338Z,36.30
2017-07-19T10:15:38.890Z,36.30
2017-07-19T10:18:06.389Z,36.50
2017-07-19T10:20:33.907Z,36.90
2017-07-19T10:23:01.429Z,37.40
2017-07-19T10:25:29.692Z,38.40
2017-07-19T10:27:57.937Z,37.70
2017-07-19T10:30:25.408Z,37.70
2017-07-19T10:32:52.901Z,37.50
2017-07-19T10:35:21.374Z,37.30
2017-07-19T10:37:49.609Z,37.60
2017-07-19T10:40:17.102Z,37.60
2017-07-19T10:42:45.341Z,35.80
2017-07-19T10:45:12.809Z,35.80
2017-07-19T10:47:40.301Z,36.50
2017-07-19T10:50:07.777Z,36.90
2017-07-19T10:52:35.250Z,36.10
2017-07-19T10:55:02.737Z,35.50
2017-07-19T10:57:30.205Z,35.90
2017-07-19T10:59:57.673Z,35.70
2017-07-19T11:02:25.173Z,34.70
2017-07-19T11:04:52.649Z,34.30
2017-07-19T11:07:20.125Z,34.10
2017-07-19T11:09:47.614Z,34.00
2017-07-19T11:12:15.085Z,34.10
2017-07-19T11:14:42.561Z,34.50
2017-07-19T11:17:10.057Z,34.60
2017-07-19T11:19:37.542Z,34.20
2017-07-19T11:22:05.097Z,33.70
2017-07-19T11:24:32.597Z,34.20
2017-07-19T11:27:00.066Z,34.20
2017-07-19T11:29:27.809Z,34.60
2017-07-19T11:31:55.301Z,35.20
2017-07-19T11:34:23.029Z,35.80
2017-07-19T11:36:50.505Z,36.40
2017-07-19T11:39:17.992Z,36.60
2017-07-19T11:41:45.461Z,36.40
2017-07-19T11:44:13.706Z,35.50
2017-07-19T11:46:41.293Z,35.40
2017-07-19T11:49:08.761Z,36.20
2017-07-19T11:51:36.997Z,34.30
2017-07-19T11:54:04.733Z,34.20
2017-07-19T11:56:32.208Z,34.50
2017-07-19T11:58:59.740Z,34.90
2017-07-19T12:01:27.242Z,34.30
2017-07-19T12:03:54.722Z,33.80
2017-07-19T12:06:22.193Z,34.20
2017-07-19T12:08:49.685Z,34.50
2017-07-19T12:11:17.153Z,34.30
2017-07-19T12:13:44.891Z,34.80
2017-07-19T12:16:12.380Z,34.90
2017-07-19T12:18:39.859Z,35.10
2017-07-19T12:21:08.097Z,35.50
2017-07-19T12:23:35.589Z,35.50
2017-07-19T12:26:04.041Z,35.50
2017-07-19T12:28:31.508Z,35.50
2017-07-19T12:30:59.013Z,35.80
2017-07-19T12:33:26.483Z,34.80
2017-07-19T12:35:53.962Z,34.60
2017-07-19T12:38:21.525Z,34.60
2017-07-19T12:40:49.002Z,35.20
2017-07-19T12:43:16.477Z,34.90
2017-07-19T12:45:43.977Z,34.50
2017-07-19T12:48:11.445Z,35.00
2017-07-19T12:50:38.917Z,35.50
2017-07-19T12:53:06.405Z,34.60
2017-07-19T12:55:33.876Z,35.00
2017-07-19T12:58:01.350Z,35.30
2017-07-19T13:00:28.849Z,35.20
2017-07-19T13:02:56.321Z,35.10
2017-07-19T13:05:23.796Z,35.50
2017-07-19T13:07:52.107Z,34.50
2017-07-19T13:10:20.109Z,34.50
2017-07-19T13:12:47.605Z,34.60
2017-07-19T13:15:15.097Z,34.20
2017-07-19T13:17:43.285Z,34.10
2017-07-19T13:20:10.986Z,34.00
2017-07-19T13:22:39.245Z,34.20
2017-07-19T13:25:06.781Z,34.20
2017-07-19T13:27:34.337Z,33.40
2017-07-19T13:30:02.206Z,33.60
2017-07-19T13:32:29.681Z,33.00
2017-07-19T13:34:57.156Z,33.20
2017-07-19T13:37:25.421Z,33.30
2017-07-19T13:39:53.673Z,33.50
2017-07-19T13:42:21.145Z,33.40
2017-07-19T13:44:49.432Z,33.40
2017-07-19T13:47:17.961Z,33.30
2017-07-19T13:49:45.428Z,33.20
2017-07-19T13:52:12.941Z,33.40
2017-07-19T13:54:41.181Z,33.50
2017-07-19T13:57:08.680Z,33.50
2017-07-19T13:59:36.178Z,33.60
2017-07-19T14:02:03.650Z,33.50
2017-07-19T14:04:31.126Z,33.60
2017-07-19T14:06:59.397Z,33.50
2017-07-19T14:09:26.869Z,33.50
2017-07-19T14:11:55.101Z,33.20
2017-07-19T14:14:22.704Z,33.20
2017-07-19T14:16:50.941Z,33.30
2017-07-19T14:19:18.420Z,33.30
2017-07-19T14:21:45.909Z,33.30
2017-07-19T14:24:13.394Z,33.20
2017-07-19T14:26:40.874Z,33.00
2017-07-19T14:29:08.609Z,32.70
2017-07-19T14:31:36.101Z,32.70
2017-07-19T14:34:03.575Z,32.70
2017-07-19T14:36:31.850Z,32.40
2017-07-19T14:38:59.315Z,32.40
2017-07-19T14:41:27.553Z,32.30
2017-07-19T14:43:55.045Z,32.30
2017-07-19T14:46:23.289Z,32.30
2017-07-19T14:48:50.766Z,32.30
2017-07-19T14:51:18.265Z,32.30
2017-07-19T14:53:45.826Z,32.20
2017-07-19T14:56:13.313Z,32.20
2017-07-19T14:58:40.809Z,32.20
2017-07-19T15:01:09.046Z,32.20
2017-07-19T15:03:36.521Z,32.20
2017-07-19T15:06:04.026Z,32.30
2017-07-19T15:08:31.497Z,32.40
2017-07-19T15:10:59.009Z,32.50
2017-07-19T15:13:27.265Z,32.50
2017-07-19T15:15:54.994Z,32.50
2017-07-19T15:18:22.754Z,32.70
2017-07-19T15:20:50.249Z,32.80
2017-07-19T15:23:17.974Z,32.90
2017-07-19T15:25:45.449Z,33.10
2017-07-19T15:28:12.940Z,33.20
2017-07-19T15:30:41.258Z,33.50
2017-07-19T15:33:08.908Z,33.40
2017-07-19T15:35:36.490Z,33.60
2017-07-19T15:38:03.977Z,33.50
2017-07-19T15:40:31.454Z,33.40
2017-07-19T15:42:59.725Z,33.60
2017-07-19T15:45:27.964Z,33.60
2017-07-19T15:47:55.774Z,33.60
2017-07-19T15:50:24.037Z,33.50
2017-07-19T15:52:52.290Z,33.30
2017-07-19T15:55:19.765Z,33.30
2017-07-19T15:57:47.257Z,33.40
2017-07-19T16:00:14.788Z,33.40
2017-07-19T16:02:43.027Z,33.20
2017-07-19T16:05:10.517Z,33.20
2017-07-19T16:07:38.333Z,33.20
2017-07-19T16:10:05.916Z,33.10
2017-07-19T16:12:33.462Z,32.90
2017-07-19T16:15:01.278Z,32.90
2017-07-19T16:17:28.769Z,33.00
2017-07-19T16:19:56.378Z,33.20
2017-07-19T16:22:24.625Z,33.20
2017-07-19T16:24:52.106Z,33.20
2017-07-19T16:27:19.602Z,33.20
2017-07-19T16:29:47.077Z,33.20
2017-07-19T16:32:14.560Z,33.10
2017-07-19T16:34:42.297Z,33.10
2017-07-19T16:37:09.769Z,33.00
2017-07-19T16:39:37.250Z,32.70
2017-07-19T16:42:05.281Z,32.50
2017-07-19T16:44:32.753Z,32.40
2017-07-19T16:47:00.221Z,32.30
2017-07-19T16:49:27.957Z,32.20
2017-07-19T16:51:55.429Z,32.00
2017-07-19T16:54:23.181Z,31.80
2017-07-19T16:56:50.690Z,31.80
2017-07-19T16:59:19.166Z,31.50
2017-07-19T17:01:47.414Z,31.50
2017-07-19T17:04:15.316Z,31.40
2017-07-19T17:06:43.678Z,31.60
2017-07-19T17:09:11.296Z,31.50
2017-07-19T17:11:38.793Z,31.70
2017-07-19T17:14:07.100Z,31.70
2017-07-19T17:16:34.579Z,31.80
2017-07-19T17:19:02.445Z,31.80
2017-07-19T17:21:29.921Z,31.80
2017-07-19T17:23:57.393Z,31.80
2017-07-19T17:26:25.006Z,31.80
2017-07-19T17:28:52.721Z,31.50
2017-07-19T17:31:20.201Z,31.30
2017-07-19T17:33:48.459Z,31.00
2017-07-19T17:36:15.933Z,31.00
2017-07-19T17:38:44.185Z,30.90
2017-07-19T17:41:11.684Z,30.90
2017-07-19T17:43:39.593Z,30.90
2017-07-19T17:46:07.077Z,30.90
2017-07-19T17:48:35.372Z,30.50
2017-07-19T17:51:03.609Z,30.30
2017-07-19T17:53:31.116Z,30.30
2017-07-19T17:55:58.622Z,30.30
2017-07-19T17:58:26.089Z,30.20
2017-07-19T18:00:53.566Z,30.30
2017-07-19T18:03:21.837Z,30.30
2017-07-19T18:05:50.073Z,30.30
2017-07-19T18:08:17.541Z,30.20
2017-07-19T18:10:45.033Z,30.20
2017-07-19T18:13:13.269Z,30.30
2017-07-19T18:15:40.758Z,30.30
2017-07-19T18:18:09.018Z,30.30
2017-07-19T18:20:36.493Z,30.30
2017-07-19T18:23:04.812Z,30.00
2017-07-19T18:25:32.317Z,30.00
2017-07-19T18:27:59.797Z,29.90
2017-07-19T18:30:28.033Z,29.70
2017-07-19T18:32:55.533Z,29.70
2017-07-19T18:35:23.006Z,29.50
2017-07-19T18:37:50.785Z,29.40
2017-07-19T18:40:18.281Z,29.30
2017-07-19T18:42:45.753Z,29.20
2017-07-19T18:45:13.998Z,29.00
2017-07-19T18:47:41.493Z,29.00
2017-07-19T18:50:09.747Z,28.80
2017-07-19T18:52:37.221Z,28.70
2017-07-19T18:55:05.482Z,28.60
2017-07-19T18:57:32.953Z,28.50
2017-07-19T19:00:01.188Z,28.50
2017-07-19T19:02:28.763Z,28.40
2017-07-19T19:04:56.240Z,28.30
2017-07-19T19:07:24.485Z,28.00
2017-07-19T19:09:51.977Z,28.00
2017-07-19T19:12:20.222Z,27.80
2017-07-19T19:14:47.693Z,27.80
2017-07-19T19:17:15.212Z,27.70
2017-07-19T19:19:42.690Z,27.60
2017-07-19T19:22:10.161Z,27.50
2017-07-19T19:24:37.649Z,27.30
2017-07-19T19:27:05.126Z,27.20
2017-07-19T19:29:32.717Z,27.20
2017-07-19T19:32:00.210Z,27.30
2017-07-19T19:34:28.460Z,27.10
2017-07-19T19:36:55.934Z,27.10
2017-07-19T19:39:24.221Z,26.90
2017-07-19T19:41:52.681Z,26.70
2017-07-19T19:44:20.153Z,26.70
2017-07-19T19:46:48.416Z,26.60
2017-07-19T19:49:15.905Z,26.60
2017-07-19T19:51:43.434Z,26.60
2017-07-19T19:54:11.701Z,26.50
2017-07-19T19:56:39.208Z,26.50
2017-07-19T19:59:06.684Z,26.40
2017-07-19T20:01:34.181Z,26.20
2017-07-19T20:04:02.422Z,26.10
2017-07-19T20:06:29.914Z,26.00
2017-07-19T20:08:58.231Z,25.90
2017-07-19T20:11:25.709Z,25.90
2017-07-19T20:13:53.189Z,25.70
2017-07-19T20:16:20.681Z,25.30
2017-07-19T20:18:48.156Z,25.60
2017-07-19T20:21:15.929Z,26.30
2017-07-19T20:23:43.430Z,26.60
2017-07-19T20:26:11.677Z,26.50
2017-07-19T20:28:39.145Z,26.50
2017-07-19T20:31:06.640Z,26.20
2017-07-19T20:33:34.874Z,25.50
2017-07-19T20:36:02.349Z,25.50
2017-07-19T20:38:29.916Z,25.10
2017-07-19T20:40:57.384Z,24.70
2017-07-19T20:43:25.622Z,23.60
2017-07-19T20:45:53.117Z,23.60
2017-07-19T20:48:21.384Z,23.40
2017-07-19T20:50:49.622Z,23.30
2017-07-19T20:53:17.117Z,23.20
2017-07-19T20:55:45.366Z,20.90
2017-07-19T20:58:12.837Z,20.80
2017-07-19T21:00:40.334Z,19.90
2017-07-19T21:03:07.805Z,19.30
2017-07-19T21:05:35.276Z,19.00
2017-07-19T21:08:02.874Z,18.90
2017-07-19T21:10:30.483Z,18.80
2017-07-19T21:12:57.969Z,18.80
2017-07-19T21:15:25.461Z,18.90
2017-07-19T21:17:53.697Z,19.00
2017-07-19T21:20:21.437Z,19.00
2017-07-19T21:22:48.967Z,19.10
2017-07-19T21:25:16.441Z,19.10
2017-07-19T21:27:43.917Z,19.10
2017-07-19T21:30:11.421Z,19.10
2017-07-19T21:32:39.657Z,18.80
2017-07-19T21:35:07.137Z,18.80
2017-07-19T21:37:34.629Z,18.80
2017-07-19T21:40:02.105Z,18.70
2017-07-19T21:42:29.601Z,18.80
2017-07-19T21:44:57.287Z,18.70
2017-07-19T21:47:25.524Z,18.60
2017-07-19T21:49:53.002Z,18.60
2017-07-19T21:52:20.517Z,18.60
2017-07-19T21:54:47.988Z,18.60
2017-07-19T21:57:15.473Z,18.50
2017-07-19T21:59:43.771Z,18.50
2017-07-19T22:02:12.009Z,18.50
2017-07-19T22:04:39.481Z,18.50
2017-07-19T22:07:06.977Z,18.50
2017-07-19T22:09:34.495Z,18.60
2017-07-19T22:12:01.997Z,18.70
2017-07-19T22:14:29.493Z,18.60
2017-07-19T22:16:56.966Z,18.50
2017-07-19T22:19:24.438Z,18.50
2017-07-19T22:21:52.729Z,18.60
2017-07-19T22:24:20.965Z,18.40
2017-07-19T22:26:48.444Z,18.40
2017-07-19T22:29:16.724Z,18.30
2017-07-19T22:31:44.961Z,18.30
2017-07-19T22:34:12.433Z,18.30
2017-07-19T22:36:39.924Z,18.20
2017-07-19T22:39:08.161Z,18.20
2017-07-19T22:41:35.634Z,18.20
2017-07-19T22:44:03.141Z,18.30
2017-07-19T22:46:30.619Z,18.30
2017-07-19T22:48:58.093Z,18.40
2017-07-19T22:51:25.591Z,18.50
2017-07-19T22:53:53.070Z,18.40
2017-07-19T22:56:20.553Z,18.40
2017-07-19T22:58:48.129Z,18.40
2017-07-19T23:01:15.705Z,18.40
2017-07-19T23:03:43.941Z,18.30
2017-07-19T23:06:11.435Z,18.30
2017-07-19T23:08:39.677Z,18.30
2017-07-19T23:11:07.149Z,18.30
2017-07-19T23:13:34.641Z,18.30
2017-07-19T23:16:02.878Z,18.40
2017-07-19T23:18:30.352Z,18.30
2017-07-19T23:20:58.224Z,18.40
2017-07-19T23:23:26.465Z,18.30
2017-07-19T23:25:53.937Z,18.30
2017-07-19T23:28:21.428Z,18.30
2017-07-19T23:30:48.922Z,18.30
2017-07-19T23:33:16.393Z,18.30
2017-07-19T23:35:43.893Z,18.30
2017-07-19T23:38:12.129Z,18.40
2017-07-19T23:40:39.869Z,18.40
2017-07-19T23:43:07.370Z,18.40
2017-07-19T23:45:34.856Z,18.40
2017-07-19T23:48:02.330Z,18.30
2017-07-19T23:50:29.825Z,18.30
2017-07-19T23:52:57.351Z,18.30
2017-07-19T23:55:24.825Z,18.30
2017-07-19T23:57:52.317Z,18.40
